Time;durP1;ratioP1;P1;durP2;ratioP2;P2;SDS_P1;SDS_P2;PMS_P1;PMS_P2;Temp;Humidity;BMP_temperature;BMP_pressure;BME280_temperature;BME280_humidity;BME280_pressure;Samples;Min_cycle;Max_cycle;Signal;HPM_P1;HPM_P2
2021/05/23 00:02:23;;;;;;;2.33;1.90;;;;;;;10.80;59.33;97605.06;5002139;28;20669;-70
2021/05/23 00:04:52;;;;;;;3.40;1.23;;;;;;;10.64;59.88;97606.78;4997662;28;20631;-70
2021/05/23 00:07:25;;;;;;;2.30;1.30;;;;;;;10.66;60.45;97610.09;5006399;28;20600;-70
2021/05/23 00:09:54;;;;;;;1.63;1.43;;;;;;;10.67;60.11;97601.13;5005046;28;20202;-71
2021/05/23 00:12:22;;;;;;;2.27;1.57;;;;;;;10.68;60.52;97602.78;5004739;28;20310;-71
2021/05/23 00:14:49;;;;;;;2.20;1.30;;;;;;;10.63;60.62;97609.63;5007672;28;20693;-71
2021/05/23 00:17:17;;;;;;;1.63;1.53;;;;;;;10.64;60.67;97612.09;5006501;28;20573;-71
2021/05/23 00:19:45;;;;;;;3.80;1.17;;;;;;;10.66;60.88;97606.63;5004952;28;20238;-72
2021/05/23 00:22:13;;;;;;;1.77;0.70;;;;;;;10.55;61.73;97613.94;5003727;28;20235;-71
2021/05/23 00:24:41;;;;;;;1.10;1.00;;;;;;;10.60;61.96;97610.78;5008035;28;20382;-71
2021/05/23 00:27:08;;;;;;;1.87;1.10;;;;;;;10.50;62.79;97605.69;5003139;28;20232;-71
2021/05/23 00:29:36;;;;;;;1.20;1.20;;;;;;;10.50;65.70;97603.06;5006415;28;20665;-72
2021/05/23 00:32:04;;;;;;;1.70;1.07;;;;;;;10.40;65.65;97599.78;5006067;28;20324;-71
2021/05/23 00:34:31;;;;;;;1.07;0.93;;;;;;;10.33;65.31;97594.31;5007021;28;20212;-71
2021/05/23 00:36:59;;;;;;;4.13;1.60;;;;;;;10.36;65.82;97590.50;5011273;28;20661;-71
2021/05/23 00:39:27;;;;;;;4.53;1.97;;;;;;;10.37;66.16;97592.97;5011963;28;20208;-73
2021/05/23 00:41:55;;;;;;;1.83;0.93;;;;;;;10.26;65.85;97578.31;5009392;28;20225;-72
2021/05/23 00:44:22;;;;;;;1.80;0.90;;;;;;;10.22;66.41;97579.63;5010277;28;20209;-71
2021/05/23 00:46:50;;;;;;;1.67;1.57;;;;;;;10.24;66.58;97579.47;5011264;28;20204;-71
2021/05/23 00:49:18;;;;;;;0.97;0.87;;;;;;;10.20;66.08;97580.81;5009568;28;20212;-71
2021/05/23 00:51:45;;;;;;;0.90;0.90;;;;;;;10.24;67.23;97574.19;5013657;28;20708;-72
2021/05/23 00:54:13;;;;;;;3.53;1.30;;;;;;;10.17;67.75;97570.56;5007189;28;20204;-71
2021/05/23 00:56:43;;;;;;;3.33;1.67;;;;;;;10.19;67.16;97576.50;5009715;28;20207;-71
2021/05/23 00:59:12;;;;;;;1.67;1.40;;;;;;;10.14;67.95;97575.22;5008433;28;20209;-71
2021/05/23 01:02:39;;;;;;;2.00;1.13;;;;;;;10.20;67.35;97565.75;5003738;28;20665;-71
2021/05/23 01:05:07;;;;;;;1.23;1.13;;;;;;;10.10;66.78;97573.06;5009345;28;20213;-73
2021/05/23 01:07:35;;;;;;;1.30;1.20;;;;;;;10.09;67.51;97577.56;5012482;28;20239;-72
2021/05/23 01:10:06;;;;;;;1.27;1.20;;;;;;;10.09;67.68;97582.00;5008915;28;20213;-70
2021/05/23 01:13:42;;;;;;;0.80;0.80;;;;;;;10.13;67.70;97570.91;5004087;28;20224;-71
2021/05/23 01:16:12;;;;;;;3.53;1.37;;;;;;;10.09;67.95;97582.84;5009972;28;20232;-71
2021/05/23 01:18:47;;;;;;;1.07;1.00;;;;;;;10.11;67.82;97572.06;5009429;28;20215;-72
2021/05/23 01:21:16;;;;;;;1.53;1.20;;;;;;;10.13;68.55;97575.38;5003595;28;20665;-71
2021/05/23 01:23:45;;;;;;;1.47;1.37;;;;;;;10.17;68.02;97573.22;5007398;28;20272;-71
2021/05/23 01:26:15;;;;;;;1.30;1.20;;;;;;;10.31;67.74;97585.72;5005337;28;20197;-71
2021/05/23 01:28:45;;;;;;;1.80;1.03;;;;;;;10.19;68.75;97579.97;5004853;28;20486;-71
2021/05/23 01:31:15;;;;;;;1.80;1.33;;;;;;;10.31;69.04;97579.63;5006856;28;20215;-71
2021/05/23 01:33:43;;;;;;;1.83;1.20;;;;;;;10.39;69.05;97584.88;5000838;28;20231;-71
2021/05/23 01:36:11;;;;;;;1.33;1.23;;;;;;;10.29;69.02;97585.06;5009394;28;20562;-71
2021/05/23 01:38:38;;;;;;;1.40;1.03;;;;;;;10.08;70.13;97586.50;5009132;28;20308;-71
2021/05/23 01:41:08;;;;;;;1.83;1.30;;;;;;;9.99;69.89;97593.63;5005255;28;20209;-71
2021/05/23 01:43:36;;;;;;;1.63;1.07;;;;;;;9.94;70.64;97595.97;5008945;28;20232;-71
2021/05/23 01:46:05;;;;;;;1.73;1.53;;;;;;;10.06;70.38;97595.59;5008891;28;20604;-71
2021/05/23 01:48:34;;;;;;;1.10;1.10;;;;;;;10.18;69.83;97604.81;5008180;28;20232;-72
2021/05/23 01:51:02;;;;;;;1.43;1.23;;;;;;;10.21;69.78;97590.41;5006503;28;20205;-72
2021/05/23 01:53:30;;;;;;;1.37;1.23;;;;;;;10.10;71.35;97597.72;5005466;28;20231;-70
2021/05/23 01:55:58;;;;;;;1.87;1.10;;;;;;;10.06;71.05;97604.38;5006458;28;20727;-73
2021/05/23 01:58:26;;;;;;;2.00;1.80;;;;;;;10.11;71.55;97599.38;5008026;28;20211;-71
2021/05/23 02:00:55;;;;;;;1.50;1.40;;;;;;;10.18;71.76;97601.34;5007766;28;20224;-71
2021/05/23 02:03:24;;;;;;;2.83;1.27;;;;;;;10.16;72.51;97598.03;5010130;28;20228;-72
2021/05/23 02:05:53;;;;;;;2.30;1.47;;;;;;;10.09;73.72;97596.09;5004150;28;20232;-71
2021/05/23 02:08:22;;;;;;;2.30;1.50;;;;;;;9.87;75.82;97588.84;5006471;28;20224;-71
2021/05/23 02:10:51;;;;;;;1.30;1.20;;;;;;;9.80;76.91;97588.69;5005250;28;20317;-71
2021/05/23 02:13:19;;;;;;;1.30;1.20;;;;;;;9.73;77.72;97598.31;5006668;28;20311;-71
2021/05/23 02:15:47;;;;;;;2.63;2.03;;;;;;;9.92;76.60;97605.06;5005350;28;20304;-71
2021/05/23 02:18:16;;;;;;;2.87;1.80;;;;;;;9.87;76.56;97607.38;5007361;28;20213;-71
2021/05/23 02:20:44;;;;;;;2.20;2.00;;;;;;;9.84;75.79;97608.53;4999301;28;20555;-71
2021/05/23 02:23:13;;;;;;;2.00;1.90;;;;;;;9.74;74.94;97608.75;5003558;28;20231;-71
2021/05/23 02:25:41;;;;;;;2.87;2.10;;;;;;;9.76;75.28;97609.41;5011574;28;20204;-71
2021/05/23 02:28:11;;;;;;;1.77;1.67;;;;;;;9.93;75.79;97617.28;5005033;28;20228;-71
2021/05/23 02:30:40;;;;;;;3.70;1.50;;;;;;;9.96;75.51;97624.88;5007172;28;20223;-71
2021/05/23 02:33:10;;;;;;;1.57;1.20;;;;;;;9.79;77.43;97621.44;5010915;28;20233;-72
2021/05/23 02:35:41;;;;;;;2.53;1.50;;;;;;;9.69;78.49;97624.31;5006854;28;20557;-72
2021/05/23 02:38:09;;;;;;;1.40;1.30;;;;;;;9.55;79.03;97631.09;5008139;28;20243;-71
2021/05/23 02:40:37;;;;;;;2.90;1.50;;;;;;;9.57;81.18;97637.03;5006110;28;20208;-71
2021/05/23 02:43:06;;;;;;;2.07;1.43;;;;;;;9.53;83.76;97631.25;5004567;28;20661;-67
2021/05/23 02:45:35;;;;;;;1.53;1.43;;;;;;;9.26;87.51;97641.16;5003366;28;20205;-67
2021/05/23 02:48:03;;;;;;;2.70;1.27;;;;;;;8.98;86.67;97640.63;5002726;28;20914;-67
2021/05/23 02:50:32;;;;;;;1.60;1.33;;;;;;;9.03;89.53;97642.78;5003276;28;20205;-67
2021/05/23 02:53:01;;;;;;;2.87;1.70;;;;;;;9.02;88.61;97641.13;5002839;28;20819;-67
2021/05/23 02:55:29;;;;;;;1.20;1.20;;;;;;;9.00;90.23;97635.19;5001455;28;20209;-68
2021/05/23 02:57:57;;;;;;;1.27;1.10;;;;;;;8.90;93.19;97641.44;5003794;28;20251;-68
2021/05/23 03:00:24;;;;;;;2.30;1.67;;;;;;;8.79;94.60;97655.78;5004674;28;20208;-70
2021/05/23 03:02:52;;;;;;;2.73;1.77;;;;;;;8.77;97.28;97651.63;5003356;28;20279;-68
2021/05/23 03:05:22;;;;;;;2.70;1.77;;;;;;;8.78;96.12;97659.41;5004384;28;20213;-70
2021/05/23 03:07:51;;;;;;;2.63;1.60;;;;;;;8.56;97.89;97660.00;5008308;28;20228;-72
2021/05/23 03:10:21;;;;;;;2.20;2.00;;;;;;;8.47;99.63;97677.59;5006817;28;20212;-70
2021/05/23 03:12:49;;;;;;;3.60;1.60;;;;;;;8.50;99.43;97674.66;5006261;28;20842;-70
2021/05/23 03:15:18;;;;;;;1.60;1.53;;;;;;;8.40;100.00;97678.22;5006962;28;20685;-70
2021/05/23 03:17:46;;;;;;;2.13;1.90;;;;;;;8.36;100.00;97690.09;5005578;28;20209;-70
2021/05/23 03:20:15;;;;;;;3.13;1.97;;;;;;;8.39;100.00;97697.69;5007519;28;20335;-71
2021/05/23 03:22:47;;;;;;;3.00;2.07;;;;;;;8.26;100.00;97702.56;5002738;28;20241;-71
2021/05/23 03:25:15;;;;;;;2.80;2.60;;;;;;;8.17;100.00;97706.97;4998085;28;20216;-70
2021/05/23 03:27:44;;;;;;;2.20;2.10;;;;;;;8.11;100.00;97708.41;5004919;28;20586;-70
2021/05/23 03:30:14;;;;;;;2.30;2.10;;;;;;;8.09;100.00;97717.47;5005330;28;20205;-69
2021/05/23 03:32:42;;;;;;;2.77;1.97;;;;;;;8.16;100.00;97715.06;5004238;28;20228;-70
2021/05/23 03:35:10;;;;;;;2.23;1.80;;;;;;;8.20;100.00;97719.84;5006839;28;20205;-72
2021/05/23 03:37:38;;;;;;;2.67;2.33;;;;;;;8.25;100.00;97720.22;5008868;28;20209;-72
2021/05/23 03:40:09;;;;;;;1.60;1.50;;;;;;;8.25;100.00;97725.50;5002332;28;21174;-71
2021/05/23 03:42:36;;;;;;;2.20;2.10;;;;;;;8.22;100.00;97720.53;5006399;28;20228;-72
2021/05/23 03:45:07;;;;;;;3.43;1.90;;;;;;;8.11;100.00;97721.59;5002911;28;20300;-73
2021/05/23 03:47:35;;;;;;;1.63;1.53;;;;;;;8.20;100.00;97717.22;5007760;28;20678;-71
2021/05/23 03:50:03;;;;;;;2.10;1.67;;;;;;;8.18;100.00;97721.81;5007283;28;20633;-72
2021/05/23 03:52:31;;;;;;;2.17;1.93;;;;;;;8.14;100.00;97717.84;5004585;28;20267;-71
2021/05/23 03:54:58;;;;;;;2.00;1.90;;;;;;;8.21;100.00;97723.34;5008954;28;20688;-71
2021/05/23 03:57:26;;;;;;;2.23;2.03;;;;;;;8.25;100.00;97722.03;5003693;28;20205;-72
2021/05/23 03:59:54;;;;;;;2.07;1.77;;;;;;;8.08;100.00;97723.75;5007660;28;20208;-71
2021/05/23 04:02:22;;;;;;;1.80;1.70;;;;;;;8.09;100.00;97722.75;5004995;28;20628;-71
2021/05/23 04:04:56;;;;;;;2.20;2.10;;;;;;;8.11;100.00;97726.06;5011220;28;20204;-73
2021/05/23 04:07:26;;;;;;;4.53;1.80;;;;;;;8.07;100.00;97728.19;5008907;28;20211;-73
2021/05/23 04:09:55;;;;;;;2.00;1.90;;;;;;;8.11;100.00;97731.34;5009959;28;20339;-73
2021/05/23 04:12:27;;;;;;;1.77;1.67;;;;;;;8.18;100.00;97735.03;5015181;28;20728;-73
2021/05/23 04:14:54;;;;;;;2.47;1.50;;;;;;;8.16;100.00;97738.81;5008269;28;20231;-73
2021/05/23 04:17:22;;;;;;;3.00;1.63;;;;;;;8.19;100.00;97735.88;5007787;28;20209;-73
2021/05/23 04:19:50;;;;;;;2.17;1.50;;;;;;;8.23;100.00;97745.13;5010202;28;20200;-73
2021/05/23 04:22:17;;;;;;;1.70;1.60;;;;;;;8.17;100.00;97737.84;5006127;28;20255;-71
2021/05/23 04:24:45;;;;;;;2.63;2.00;;;;;;;8.23;100.00;97750.41;5009022;28;20675;-73
2021/05/23 04:27:12;;;;;;;1.67;1.57;;;;;;;8.20;100.00;97748.91;5004862;28;20197;-71
2021/05/23 04:29:39;;;;;;;1.80;1.70;;;;;;;8.15;100.00;97755.63;5014702;28;20947;-73
2021/05/23 04:32:08;;;;;;;1.60;1.50;;;;;;;8.17;100.00;97751.03;5005490;28;20229;-72
2021/05/23 04:34:37;;;;;;;1.43;1.33;;;;;;;8.13;100.00;97754.94;5008175;28;20204;-73
2021/05/23 04:37:04;;;;;;;2.30;1.60;;;;;;;8.21;100.00;97761.09;5004031;28;20609;-73
2021/05/23 04:39:32;;;;;;;2.17;2.07;;;;;;;8.15;100.00;97764.38;5007812;28;20871;-71
2021/05/23 04:41:59;;;;;;;1.80;1.70;;;;;;;8.25;100.00;97775.66;5010088;28;20228;-72
2021/05/23 04:44:47;;;;;;;1.80;1.70;;;;;;;8.23;100.00;97772.34;5005779;28;20239;-73
2021/05/23 04:47:14;;;;;;;2.63;1.97;;;;;;;8.23;100.00;97771.53;5010118;28;20205;-69
2021/05/23 04:49:43;;;;;;;1.77;1.67;;;;;;;8.31;100.00;97781.28;5004452;28;20635;-73
2021/05/23 04:52:12;;;;;;;1.60;1.60;;;;;;;8.39;100.00;97787.47;5008483;28;20231;-73
2021/05/23 04:54:40;;;;;;;2.77;1.80;;;;;;;8.43;100.00;97793.28;5008278;28;20208;-74
2021/05/23 04:57:08;;;;;;;2.30;2.10;;;;;;;8.45;100.00;97793.94;5007629;28;20205;-73
2021/05/23 04:59:35;;;;;;;2.50;2.00;;;;;;;8.52;100.00;97800.28;5010672;28;20201;-73
2021/05/23 05:02:03;;;;;;;1.87;1.77;;;;;;;8.45;100.00;97796.59;5003564;28;20240;-74
2021/05/23 05:04:31;;;;;;;2.10;2.00;;;;;;;8.52;100.00;97802.09;5013811;28;20787;-71
2021/05/23 05:06:59;;;;;;;1.60;1.50;;;;;;;8.54;100.00;97810.72;5007736;28;20216;-72
2021/05/23 05:09:27;;;;;;;3.23;2.07;;;;;;;8.57;100.00;97815.69;5011615;28;20240;-68
2021/05/23 05:11:54;;;;;;;1.83;1.73;;;;;;;8.52;100.00;97810.00;5006870;28;20239;-69
2021/05/23 05:14:22;;;;;;;1.87;1.77;;;;;;;8.49;100.00;97812.94;5010510;28;20209;-70
2021/05/23 05:16:49;;;;;;;1.87;1.77;;;;;;;8.42;100.00;97809.25;5009163;28;20209;-70
2021/05/23 05:19:17;;;;;;;1.87;1.77;;;;;;;8.50;100.00;97811.97;5009533;28;20212;-70
2021/05/23 05:21:45;;;;;;;1.70;1.60;;;;;;;8.55;100.00;97817.66;5013707;28;20292;-70
2021/05/23 05:24:14;;;;;;;2.23;2.03;;;;;;;8.59;100.00;97831.34;5002628;28;20247;-68
2021/05/23 05:26:42;;;;;;;2.63;1.90;;;;;;;8.57;100.00;97831.53;5006231;28;20205;-69
2021/05/23 05:29:09;;;;;;;1.87;1.77;;;;;;;8.57;100.00;97844.75;5003094;28;20317;-70
2021/05/23 05:31:36;;;;;;;2.10;1.80;;;;;;;8.50;100.00;97847.16;5005693;28;20209;-69
2021/05/23 05:34:04;;;;;;;2.00;1.80;;;;;;;8.56;100.00;97856.28;5004438;28;20209;-68
2021/05/23 05:36:31;;;;;;;1.97;1.87;;;;;;;8.55;100.00;97865.19;5009068;28;20296;-70
2021/05/23 05:38:59;;;;;;;1.60;1.50;;;;;;;8.57;100.00;97865.88;5007913;28;20231;-68
2021/05/23 05:41:27;;;;;;;1.60;1.50;;;;;;;8.62;100.00;97860.94;5005579;28;20244;-69
2021/05/23 05:43:55;;;;;;;2.20;1.80;;;;;;;8.65;100.00;97873.00;5012293;28;21626;-69
2021/05/23 05:46:22;;;;;;;2.07;1.87;;;;;;;8.74;100.00;97864.16;5014208;28;20209;-69
2021/05/23 05:48:50;;;;;;;2.70;1.97;;;;;;;8.74;100.00;97871.25;5011550;28;20240;-69
2021/05/23 05:51:18;;;;;;;2.77;2.57;;;;;;;8.74;100.00;97863.31;5009647;28;20213;-69
2021/05/23 05:53:45;;;;;;;2.10;2.00;;;;;;;8.76;100.00;97864.00;5005032;28;20225;-69
2021/05/23 05:56:13;;;;;;;2.33;2.13;;;;;;;8.74;100.00;97881.81;5004728;28;20201;-69
2021/05/23 05:58:41;;;;;;;2.00;1.90;;;;;;;8.75;100.00;97883.47;5008677;28;20200;-70
2021/05/23 06:01:09;;;;;;;2.57;1.73;;;;;;;8.85;100.00;97889.47;5006646;28;20217;-70
2021/05/23 06:03:37;;;;;;;3.43;2.10;;;;;;;8.82;100.00;97885.34;5011379;28;20601;-68
2021/05/23 06:06:05;;;;;;;2.47;2.27;;;;;;;8.83;100.00;97886.16;5001773;28;20804;-68
2021/05/23 06:08:32;;;;;;;1.77;1.50;;;;;;;8.89;100.00;97897.94;5002421;28;20205;-70
2021/05/23 06:11:00;;;;;;;1.90;1.80;;;;;;;8.91;100.00;97901.25;5003797;28;20240;-69
2021/05/23 06:13:27;;;;;;;1.70;1.60;;;;;;;8.82;100.00;97903.84;5006885;28;20236;-69
2021/05/23 06:15:56;;;;;;;2.23;1.70;;;;;;;8.90;100.00;97915.47;5004703;28;20215;-68
2021/05/23 06:18:24;;;;;;;1.80;1.70;;;;;;;8.81;100.00;97906.63;5003705;28;20211;-71
2021/05/23 06:20:52;;;;;;;2.10;2.00;;;;;;;8.97;100.00;97911.19;5006737;28;20212;-69
2021/05/23 06:23:20;;;;;;;2.47;1.57;;;;;;;8.94;100.00;97917.66;5003023;28;20228;-71
2021/05/23 06:25:48;;;;;;;2.10;1.70;;;;;;;9.14;100.00;97920.06;5008069;28;20209;-71
2021/05/23 06:28:15;;;;;;;1.60;1.50;;;;;;;9.26;100.00;97921.44;5009724;28;20228;-71
2021/05/23 06:30:43;;;;;;;1.77;1.60;;;;;;;9.11;100.00;97926.50;5004054;28;20224;-70
2021/05/23 06:33:11;;;;;;;2.03;1.93;;;;;;;9.23;100.00;97920.94;5002938;28;20231;-69
2021/05/23 06:35:39;;;;;;;2.90;1.80;;;;;;;9.39;100.00;97921.00;5003916;28;20205;-70
2021/05/23 06:38:06;;;;;;;1.90;1.70;;;;;;;9.18;100.00;97924.03;5004301;28;20213;-71
2021/05/23 06:40:34;;;;;;;1.27;1.23;;;;;;;9.33;100.00;97926.13;5003520;28;20201;-71
2021/05/23 06:43:01;;;;;;;1.97;1.60;;;;;;;9.41;100.00;97926.16;5005867;28;20224;-69
2021/05/23 06:45:29;;;;;;;1.67;1.57;;;;;;;9.77;100.00;97923.31;5003935;28;20205;-69
2021/05/23 06:47:56;;;;;;;3.47;1.33;;;;;;;9.72;100.00;97919.50;5008041;28;20236;-70
2021/05/23 06:50:28;;;;;;;1.47;1.37;;;;;;;9.87;99.16;97914.41;5003232;28;20231;-69
2021/05/23 06:52:55;;;;;;;1.33;1.23;;;;;;;9.78;96.52;97932.91;5004009;28;20225;-70
2021/05/23 06:55:23;;;;;;;1.57;1.20;;;;;;;9.89;96.86;97925.66;5005017;28;21025;-70
2021/05/23 06:57:51;;;;;;;1.20;1.20;;;;;;;10.01;96.31;97932.31;5004294;28;20209;-70
2021/05/23 07:00:19;;;;;;;3.03;1.67;;;;;;;9.90;93.83;97925.50;5006654;28;20216;-69
2021/05/23 07:02:47;;;;;;;1.43;1.40;;;;;;;9.79;91.92;97937.22;5004724;28;20615;-69
2021/05/23 07:05:15;;;;;;;3.00;1.50;;;;;;;9.85;91.07;97925.16;5004144;28;20200;-69
2021/05/23 07:07:43;;;;;;;1.60;1.50;;;;;;;10.07;91.25;97930.84;5004298;28;20205;-70
2021/05/23 07:10:11;;;;;;;2.93;1.50;;;;;;;10.24;87.94;97926.41;5001976;28;20224;-70
2021/05/23 07:12:39;;;;;;;1.03;1.03;;;;;;;10.50;86.38;97925.47;5004578;28;20217;-69
2021/05/23 07:15:08;;;;;;;1.77;1.70;;;;;;;10.60;85.17;97919.97;5003996;28;20420;-69
2021/05/23 07:17:35;;;;;;;0.73;0.73;;;;;;;10.79;83.37;97918.81;5003153;28;20652;-69
2021/05/23 07:20:04;;;;;;;2.23;1.40;;;;;;;10.84;84.74;97913.84;5003071;28;20209;-69
2021/05/23 07:22:31;;;;;;;2.63;1.77;;;;;;;11.05;83.32;97925.75;4999182;28;20260;-69
2021/05/23 07:25:00;;;;;;;2.10;1.20;;;;;;;11.22;81.12;97929.19;5007818;28;20235;-69
2021/05/23 07:27:27;;;;;;;3.07;1.43;;;;;;;11.10;77.81;97915.44;5000685;28;20701;-70
2021/05/23 07:29:56;;;;;;;1.20;1.10;;;;;;;10.93;77.61;97920.81;5001139;28;20225;-70
2021/05/23 07:32:23;;;;;;;3.17;2.07;;;;;;;11.04;77.65;97932.88;5005257;28;20705;-70
2021/05/23 07:34:51;;;;;;;1.40;1.30;;;;;;;11.10;78.39;97923.41;5006007;28;20208;-69
2021/05/23 07:37:18;;;;;;;1.63;1.30;;;;;;;11.37;77.11;97918.72;4999748;28;20209;-69
2021/05/23 07:39:45;;;;;;;2.13;1.30;;;;;;;11.42;76.06;97921.66;5001253;28;20665;-70
2021/05/23 07:42:14;;;;;;;1.00;1.00;;;;;;;11.52;75.64;97924.13;5002660;28;20298;-71
2021/05/23 07:44:41;;;;;;;3.37;1.40;;;;;;;11.24;72.53;97924.53;5000978;28;20656;-69
2021/05/23 07:47:09;;;;;;;2.97;1.43;;;;;;;11.57;72.96;97935.06;5003133;28;20216;-71
2021/05/23 07:49:40;;;;;;;1.23;1.17;;;;;;;11.76;72.32;97938.31;5003143;28;20224;-71
2021/05/23 07:52:08;;;;;;;1.83;1.70;;;;;;;11.68;72.29;97932.00;5008683;28;20244;-70
2021/05/23 07:54:36;;;;;;;1.73;1.10;;;;;;;11.69;72.37;97935.50;5001194;28;20209;-71
2021/05/23 07:57:04;;;;;;;1.13;1.13;;;;;;;11.55;71.01;97943.19;5003726;28;20219;-71
2021/05/23 07:59:33;;;;;;;0.77;0.77;;;;;;;11.87;70.86;97959.16;5000272;28;20204;-69
2021/05/23 08:02:01;;;;;;;1.10;1.10;;;;;;;12.07;67.30;97958.75;5002786;28;20352;-71
2021/05/23 08:04:29;;;;;;;2.00;1.30;;;;;;;12.13;67.08;97964.19;5005246;28;20659;-71
2021/05/23 08:06:56;;;;;;;1.30;1.07;;;;;;;11.95;68.49;97958.31;5002840;28;20216;-71
2021/05/23 08:09:24;;;;;;;2.97;1.20;;;;;;;11.68;68.40;97968.38;5003547;28;20633;-69
2021/05/23 08:11:51;;;;;;;3.40;1.10;;;;;;;11.56;68.07;97966.09;5002112;28;20220;-71
2021/05/23 08:14:20;;;;;;;1.70;1.60;;;;;;;11.49;68.45;97973.06;5004480;28;20673;-71
2021/05/23 08:16:48;;;;;;;3.07;1.10;;;;;;;11.85;66.93;97969.13;5003929;28;20205;-71
2021/05/23 08:19:15;;;;;;;1.67;1.10;;;;;;;12.00;67.15;97971.88;5010022;28;20251;-70
2021/05/23 08:21:43;;;;;;;1.07;1.00;;;;;;;12.45;66.40;97970.31;5006648;28;20201;-71
2021/05/23 08:24:11;;;;;;;1.90;0.90;;;;;;;13.02;64.07;97968.19;5011051;28;20227;-69
2021/05/23 08:26:39;;;;;;;1.80;1.50;;;;;;;13.38;62.06;97960.53;5006830;28;20215;-71
2021/05/23 08:29:07;;;;;;;0.73;0.57;;;;;;;12.85;64.45;97982.66;5002639;28;20704;-71
2021/05/23 08:31:34;;;;;;;1.73;1.07;;;;;;;12.57;58.94;97985.84;5009410;28;20219;-70
2021/05/23 08:34:03;;;;;;;2.20;0.93;;;;;;;12.78;58.55;97971.88;5004449;28;20300;-71
2021/05/23 08:36:31;;;;;;;1.70;1.30;;;;;;;12.83;60.03;97972.19;5008684;28;20212;-70
2021/05/23 08:38:59;;;;;;;2.47;1.17;;;;;;;12.54;59.41;97984.38;5005205;28;20212;-71
2021/05/23 08:41:26;;;;;;;0.90;0.90;;;;;;;12.57;59.85;97985.84;5003551;28;20678;-70
2021/05/23 08:43:54;;;;;;;2.53;0.80;;;;;;;12.50;59.83;97985.75;5003857;28;20775;-70
2021/05/23 08:46:22;;;;;;;1.67;1.13;;;;;;;12.63;58.89;97992.28;5004215;28;20720;-71
2021/05/23 08:48:49;;;;;;;2.23;1.00;;;;;;;12.28;58.81;97984.69;5004270;28;20216;-71
2021/05/23 08:51:18;;;;;;;2.00;0.90;;;;;;;12.36;60.10;97997.09;5009548;28;20225;-71
2021/05/23 08:53:45;;;;;;;1.97;1.60;;;;;;;12.30;60.46;97994.16;5017672;28;20226;-70
2021/05/23 08:56:13;;;;;;;1.90;0.90;;;;;;;12.18;59.84;98000.88;5006746;28;20931;-69
2021/05/23 08:58:40;;;;;;;1.03;0.93;;;;;;;12.06;62.19;97997.78;5007921;28;20208;-71
2021/05/23 09:01:07;;;;;;;2.57;1.43;;;;;;;11.80;63.99;98013.97;5008487;28;20215;-71
2021/05/23 09:03:35;;;;;;;3.20;1.10;;;;;;;11.31;71.17;98004.28;5008341;28;20251;-70
2021/05/23 09:06:03;;;;;;;4.00;1.30;;;;;;;11.00;71.26;98014.59;5008722;28;20213;-71
2021/05/23 09:08:31;;;;;;;1.40;1.30;;;;;;;11.14;73.19;97998.97;5008099;28;20209;-71
2021/05/23 09:11:00;;;;;;;1.97;1.87;;;;;;;11.25;71.74;98001.31;5006811;28;20247;-71
2021/05/23 09:13:30;;;;;;;2.47;2.30;;;;;;;11.66;71.87;98015.50;5004840;28;20231;-71
2021/05/23 09:15:59;;;;;;;3.93;3.47;;;;;;;12.03;74.33;98008.75;5006166;28;20209;-71
2021/05/23 09:18:39;;;;;;;1.37;1.27;;;;;;;11.70;71.79;98024.75;5005226;28;20504;-69
2021/05/23 09:21:06;;;;;;;1.67;1.57;;;;;;;10.95;71.97;98046.06;5011382;28;20372;-69
2021/05/23 09:23:46;;;;;;;5.10;1.70;;;;;;;10.36;77.30;98049.56;5004800;28;20232;-71
2021/05/23 09:26:15;;;;;;;2.67;1.87;;;;;;;10.18;76.24;98046.22;5003058;28;20200;-69
2021/05/23 09:28:42;;;;;;;1.50;1.03;;;;;;;10.11;74.50;98044.22;5013177;28;20684;-70
2021/05/23 09:31:11;;;;;;;2.03;1.37;;;;;;;10.50;74.30;98045.50;5009487;28;20220;-71
2021/05/23 09:33:47;;;;;;;2.73;1.23;;;;;;;10.84;73.82;98046.41;5006437;28;20228;-71
2021/05/23 09:36:15;;;;;;;1.77;1.20;;;;;;;11.09;72.88;98047.25;5002747;28;20234;-69
2021/05/23 09:38:54;;;;;;;1.80;1.70;;;;;;;11.32;73.99;98032.47;5009523;28;20660;-71
2021/05/23 09:41:23;;;;;;;1.53;1.43;;;;;;;11.75;72.64;98034.88;5005357;28;20648;-70
2021/05/23 09:43:51;;;;;;;1.73;1.57;;;;;;;11.90;70.50;98025.19;5008657;28;20221;-71
2021/05/23 09:46:19;;;;;;;5.23;1.50;;;;;;;11.81;67.55;98029.69;5005147;28;20596;-71
2021/05/23 09:48:50;;;;;;;2.10;1.70;;;;;;;12.16;67.11;98027.59;5004981;28;20213;-70
2021/05/23 09:51:18;;;;;;;1.27;1.17;;;;;;;12.11;67.02;98027.28;5009719;28;20228;-69
2021/05/23 09:53:56;;;;;;;2.83;1.50;;;;;;;12.51;68.60;98034.41;5002921;28;20225;-71
2021/05/23 09:56:29;;;;;;;1.70;1.20;;;;;;;12.50;65.42;98035.41;5012136;28;20201;-71
2021/05/23 09:58:56;;;;;;;2.37;1.30;;;;;;;12.53;65.71;98045.69;5015109;28;20197;-70
2021/05/23 10:01:25;;;;;;;1.67;1.27;;;;;;;12.30;64.92;98043.78;5004079;28;20677;-71
2021/05/23 10:03:55;;;;;;;1.70;1.27;;;;;;;12.63;65.55;98038.31;5006827;28;20228;-70
2021/05/23 10:06:27;;;;;;;1.17;1.07;;;;;;;12.18;62.51;98038.06;5002688;28;20293;-71
2021/05/23 10:08:54;;;;;;;1.60;1.40;;;;;;;12.28;62.62;98045.81;5004920;28;20227;-71
2021/05/23 10:11:22;;;;;;;1.40;1.30;;;;;;;12.54;65.01;98037.53;5012218;28;20597;-70
2021/05/23 10:13:50;;;;;;;1.30;1.20;;;;;;;12.63;58.42;98040.97;5003855;28;20253;-71
2021/05/23 10:16:22;;;;;;;1.87;1.70;;;;;;;13.02;57.95;98047.19;5006338;28;20205;-70
2021/05/23 10:18:50;;;;;;;1.50;1.23;;;;;;;13.40;59.20;98022.38;5007082;28;20212;-71
2021/05/23 10:21:18;;;;;;;0.73;0.73;;;;;;;13.24;54.57;98042.84;5004968;28;20566;-70
2021/05/23 10:23:48;;;;;;;1.80;1.10;;;;;;;13.54;53.58;98064.22;5002932;28;20256;-71
2021/05/23 10:26:21;;;;;;;1.20;1.07;;;;;;;13.84;52.65;98036.78;5011910;28;20215;-71
2021/05/23 10:28:51;;;;;;;3.43;2.10;;;;;;;14.10;51.20;98054.16;5004476;28;20404;-71
2021/05/23 10:31:28;;;;;;;2.37;1.70;;;;;;;14.36;48.87;98055.47;5009449;28;20632;-71
2021/05/23 10:33:55;;;;;;;1.77;1.60;;;;;;;14.90;49.99;98057.75;5010593;28;20224;-71
2021/05/23 10:36:31;;;;;;;0.83;0.83;;;;;;;14.75;50.61;98048.94;5014915;28;20220;-71
2021/05/23 10:39:00;;;;;;;1.63;1.20;;;;;;;14.23;49.16;98035.66;5003306;28;20208;-70
2021/05/23 10:41:27;;;;;;;1.37;1.13;;;;;;;14.09;50.49;98047.97;5006020;28;20208;-70
2021/05/23 10:44:08;;;;;;;2.57;1.37;;;;;;;13.82;50.09;98054.78;5010647;28;20212;-71
2021/05/23 10:46:44;;;;;;;1.70;1.40;;;;;;;13.59;51.38;98058.34;5010345;28;20205;-71
2021/05/23 10:49:12;;;;;;;3.90;1.73;;;;;;;13.30;51.65;98060.75;5007549;28;20192;-70
2021/05/23 10:51:39;;;;;;;2.43;1.33;;;;;;;13.49;51.06;98061.28;5006023;28;20806;-70
2021/05/23 10:54:13;;;;;;;1.43;1.00;;;;;;;13.64;49.48;98055.16;5003802;28;20211;-71
2021/05/23 10:56:41;;;;;;;1.57;1.47;;;;;;;13.83;49.75;98056.44;5010252;28;20688;-71
2021/05/23 10:59:09;;;;;;;1.60;1.17;;;;;;;13.74;51.28;98056.53;5002883;28;20205;-71
2021/05/23 11:01:39;;;;;;;2.40;1.27;;;;;;;13.91;51.46;98052.88;5006185;28;20832;-72
2021/05/23 11:04:12;;;;;;;1.30;1.20;;;;;;;13.94;51.97;98057.81;5003613;28;20296;-71
2021/05/23 11:06:40;;;;;;;3.43;1.60;;;;;;;14.01;53.42;98064.06;5005317;28;20682;-71
2021/05/23 11:09:09;;;;;;;1.70;1.10;;;;;;;14.67;52.92;98060.56;5005102;28;20213;-70
2021/05/23 11:11:37;;;;;;;2.13;1.17;;;;;;;15.00;52.42;98057.44;5002849;28;20303;-71
2021/05/23 11:14:16;;;;;;;1.37;1.27;;;;;;;15.05;51.24;98051.50;5004362;28;20208;-71
2021/05/23 11:16:48;;;;;;;1.03;0.93;;;;;;;15.11;52.60;98050.72;5002508;28;20692;-71
2021/05/23 11:19:15;;;;;;;1.30;0.83;;;;;;;14.54;52.95;98055.06;5000718;28;20209;-70
2021/05/23 11:21:44;;;;;;;1.00;0.90;;;;;;;14.48;51.32;98062.00;5009328;28;20204;-71
2021/05/23 11:24:11;;;;;;;0.93;0.90;;;;;;;14.21;52.80;98056.31;5002041;28;20205;-69
2021/05/23 11:26:39;;;;;;;1.43;1.30;;;;;;;14.30;52.33;98062.38;5004701;28;20209;-71
2021/05/23 11:29:07;;;;;;;1.47;1.10;;;;;;;14.00;53.13;98063.22;5006008;28;20412;-70
2021/05/23 11:31:36;;;;;;;1.00;0.93;;;;;;;13.56;54.87;98059.53;5007587;28;20723;-70
2021/05/23 11:34:06;;;;;;;6.20;1.33;;;;;;;13.54;54.91;98066.88;5011330;28;20296;-71
2021/05/23 11:36:35;;;;;;;0.80;0.80;;;;;;;13.98;53.81;98062.59;5010751;28;20208;-71
2021/05/23 11:39:04;;;;;;;1.30;0.83;;;;;;;14.01;53.08;98062.22;5001744;28;20688;-71
2021/05/23 11:41:34;;;;;;;1.20;1.00;;;;;;;14.42;52.52;98071.56;5001354;28;20208;-69
2021/05/23 11:44:01;;;;;;;1.80;1.37;;;;;;;14.29;51.64;98068.72;5005725;28;20905;-70